createdAt,value
2022-12-03T00:02:31.333Z,100.00
2022-12-03T00:05:33.860Z,100.00
2022-12-03T00:08:36.123Z,100.00
2022-12-03T00:11:38.556Z,100.00
2022-12-03T00:14:44.603Z,100.00
2022-12-03T00:17:47.415Z,100.00
2022-12-03T00:20:49.480Z,100.00
2022-12-03T00:23:51.877Z,100.00
2022-12-03T00:26:53.944Z,100.00
2022-12-03T00:29:56.300Z,100.00
2022-12-03T00:32:58.378Z,100.00
2022-12-03T00:36:00.718Z,100.00
2022-12-03T00:39:02.912Z,100.00
2022-12-03T00:42:05.538Z,100.00
2022-12-03T00:45:07.986Z,100.00
2022-12-03T00:48:10.328Z,100.00
2022-12-03T00:51:12.392Z,100.00
2022-12-03T00:54:15.176Z,100.00
2022-12-03T00:57:17.298Z,100.00
2022-12-03T01:00:24.502Z,100.00
2022-12-03T01:03:26.854Z,100.00
2022-12-03T01:06:29.284Z,100.00
2022-12-03T01:09:31.497Z,100.00
2022-12-03T01:12:33.929Z,100.00
2022-12-03T01:15:36.122Z,100.00
2022-12-03T01:18:38.550Z,100.00
2022-12-03T01:21:40.675Z,100.00
2022-12-03T01:24:43.017Z,100.00
2022-12-03T01:27:45.107Z,100.00
2022-12-03T01:31:06.181Z,100.00
2022-12-03T01:34:08.317Z,100.00
2022-12-03T01:37:10.723Z,100.00
2022-12-03T01:40:16.412Z,100.00
2022-12-03T01:43:18.838Z,100.00
2022-12-03T01:46:23.627Z,100.00
2022-12-03T01:49:40.788Z,100.00
2022-12-03T01:52:44.188Z,100.00
2022-12-03T01:55:48.893Z,100.00
2022-12-03T01:58:51.298Z,100.00
2022-12-03T02:01:53.705Z,100.00
2022-12-03T02:04:57.216Z,100.00
2022-12-03T02:08:01.055Z,100.00
2022-12-03T02:11:14.273Z,100.00
2022-12-03T02:14:20.203Z,100.00
2022-12-03T02:17:22.417Z,100.00
2022-12-03T02:20:24.834Z,100.00
2022-12-03T02:23:32.104Z,100.00
2022-12-03T02:26:34.584Z,100.00
2022-12-03T02:29:36.874Z,100.00
2022-12-03T02:32:39.943Z,100.00
2022-12-03T02:35:42.161Z,100.00
2022-12-03T02:38:48.096Z,100.00
2022-12-03T02:42:08.837Z,100.00
2022-12-03T02:45:11.600Z,100.00
2022-12-03T02:48:21.141Z,100.00
2022-12-03T02:51:23.799Z,100.00
2022-12-03T02:54:25.993Z,100.00
2022-12-03T02:57:28.412Z,100.00
2022-12-03T03:00:30.969Z,100.00
2022-12-03T03:03:33.746Z,100.00
2022-12-03T03:06:35.965Z,100.00
2022-12-03T03:09:38.584Z,100.00
2022-12-03T03:12:41.454Z,100.00
2022-12-03T03:15:45.410Z,100.00
2022-12-03T03:18:48.681Z,100.00
2022-12-03T03:21:51.588Z,100.00
2022-12-03T03:24:54.004Z,100.00
2022-12-03T03:27:56.663Z,100.00
2022-12-03T03:31:02.493Z,100.00
2022-12-03T03:34:05.344Z,100.00
2022-12-03T03:37:07.486Z,100.00
2022-12-03T03:40:10.534Z,100.00
2022-12-03T03:43:13.695Z,100.00
2022-12-03T03:46:17.590Z,100.00
2022-12-03T03:49:20.113Z,100.00
2022-12-03T03:52:23.123Z,100.00
2022-12-03T03:55:25.528Z,100.00
2022-12-03T03:58:27.973Z,100.00
2022-12-03T04:01:30.984Z,100.00
2022-12-03T04:04:36.565Z,100.00
2022-12-03T04:07:38.871Z,100.00
2022-12-03T04:11:00.080Z,100.00
2022-12-03T04:14:02.690Z,100.00
2022-12-03T04:17:05.110Z,100.00
2022-12-03T04:20:07.420Z,100.00
2022-12-03T04:23:10.428Z,100.00
2022-12-03T04:26:30.925Z,100.00
2022-12-03T04:29:33.349Z,100.00
2022-12-03T04:32:54.383Z,100.00
2022-12-03T04:35:56.642Z,100.00
2022-12-03T04:38:58.710Z,100.00
2022-12-03T04:42:01.668Z,100.00
2022-12-03T04:45:03.974Z,100.00
2022-12-03T04:48:06.405Z,100.00
2022-12-03T04:51:08.528Z,100.00
2022-12-03T04:54:11.006Z,100.00
2022-12-03T04:57:13.245Z,100.00
2022-12-03T05:00:16.103Z,100.00
2022-12-03T05:03:18.251Z,100.00
2022-12-03T05:06:20.616Z,100.00
2022-12-03T05:09:23.200Z,100.00
2022-12-03T05:12:25.592Z,100.00
2022-12-03T05:15:27.681Z,100.00
2022-12-03T05:18:30.053Z,100.00
2022-12-03T05:21:32.272Z,100.00
2022-12-03T05:24:34.600Z,100.00
2022-12-03T05:27:36.973Z,100.00
2022-12-03T05:30:39.494Z,100.00
2022-12-03T05:33:44.379Z,100.00
2022-12-03T05:36:46.941Z,100.00
2022-12-03T05:39:49.058Z,100.00
2022-12-03T05:42:54.073Z,100.00
2022-12-03T05:45:56.197Z,100.00
2022-12-03T05:48:58.660Z,100.00
2022-12-03T05:52:00.739Z,100.00
2022-12-03T05:55:04.404Z,100.00
2022-12-03T05:58:06.519Z,100.00
2022-12-03T06:01:08.891Z,100.00
2022-12-03T06:04:11.309Z,100.00
2022-12-03T06:07:14.334Z,100.00
2022-12-03T06:10:20.880Z,100.00
2022-12-03T06:13:22.978Z,100.00
2022-12-03T06:16:25.480Z,100.00
2022-12-03T06:19:27.717Z,100.00
2022-12-03T06:22:30.099Z,100.00
2022-12-03T06:25:32.508Z,100.00
2022-12-03T06:28:36.730Z,100.00
2022-12-03T06:31:38.890Z,100.00
2022-12-03T06:34:41.391Z,100.00
2022-12-03T06:37:43.506Z,100.00
2022-12-03T06:40:45.877Z,100.00
2022-12-03T06:43:47.953Z,100.00
2022-12-03T06:46:50.420Z,100.00
2022-12-03T06:49:52.583Z,100.00
2022-12-03T06:52:54.972Z,100.00
2022-12-03T06:55:57.232Z,100.00
2022-12-03T06:58:59.777Z,100.00
2022-12-03T07:02:01.910Z,100.00
2022-12-03T07:05:04.830Z,100.00
2022-12-03T07:08:07.081Z,100.00
2022-12-03T07:11:29.496Z,99.66
2022-12-03T07:14:31.636Z,99.39
2022-12-03T07:17:34.091Z,98.97
2022-12-03T07:20:36.280Z,99.66
2022-12-03T07:23:38.968Z,99.65
2022-12-03T07:26:41.115Z,99.81
2022-12-03T07:29:43.478Z,99.72
2022-12-03T07:32:45.640Z,100.00
2022-12-03T07:35:47.959Z,100.00
2022-12-03T07:38:50.157Z,99.43
2022-12-03T07:41:52.617Z,98.87
2022-12-03T07:44:55.060Z,99.11
2022-12-03T07:47:57.667Z,99.63
2022-12-03T07:50:59.854Z,99.89
2022-12-03T07:54:02.316Z,98.94
2022-12-03T07:57:04.487Z,98.56
2022-12-03T08:00:07.514Z,98.05
2022-12-03T08:03:11.001Z,96.97
2022-12-03T08:06:13.198Z,96.01
2022-12-03T08:09:16.423Z,96.17
2022-12-03T08:12:39.922Z,95.97
2022-12-03T08:15:43.077Z,96.50
2022-12-03T08:18:46.775Z,96.84
2022-12-03T08:21:49.125Z,97.24
2022-12-03T08:24:51.436Z,97.12
2022-12-03T08:28:02.668Z,96.96
2022-12-03T08:31:18.304Z,97.37
2022-12-03T08:34:34.091Z,97.80
2022-12-03T08:37:36.226Z,97.30
2022-12-03T08:40:43.552Z,97.03
2022-12-03T08:43:46.359Z,95.69
2022-12-03T08:47:08.871Z,96.22
2022-12-03T08:50:29.146Z,96.23
2022-12-03T08:53:47.700Z,96.10
2022-12-03T08:56:49.812Z,96.94
2022-12-03T09:00:04.068Z,95.72
2022-12-03T09:03:15.802Z,95.11
2022-12-03T09:06:18.477Z,95.13
2022-12-03T09:09:21.476Z,94.47
2022-12-03T09:12:23.885Z,94.36
2022-12-03T09:15:26.026Z,94.79
2022-12-03T09:18:28.377Z,93.89
2022-12-03T09:21:30.435Z,93.40
2022-12-03T09:24:32.792Z,92.87
2022-12-03T09:27:34.886Z,91.48
2022-12-03T09:30:37.283Z,91.20
2022-12-03T09:33:39.532Z,90.25
2022-12-03T09:36:41.887Z,89.84
2022-12-03T09:39:43.959Z,90.71
2022-12-03T09:42:46.669Z,90.25
2022-12-03T09:45:49.559Z,90.65
2022-12-03T09:48:52.233Z,90.96
2022-12-03T09:52:00.735Z,90.53
2022-12-03T09:55:15.559Z,90.00
2022-12-03T09:58:19.054Z,89.35
2022-12-03T10:01:21.893Z,89.03
2022-12-03T10:04:24.787Z,88.15
2022-12-03T10:07:27.046Z,88.12
2022-12-03T10:10:29.506Z,85.74
2022-12-03T10:13:32.555Z,85.42
2022-12-03T10:16:35.992Z,85.17
2022-12-03T10:19:39.653Z,85.81
2022-12-03T10:22:42.131Z,85.89
2022-12-03T10:25:52.571Z,84.85
2022-12-03T10:28:56.752Z,84.78
2022-12-03T10:32:05.662Z,84.11
2022-12-03T10:35:20.802Z,83.63
2022-12-03T10:38:23.375Z,83.91
2022-12-03T10:41:27.943Z,83.38
2022-12-03T10:44:30.587Z,82.72
2022-12-03T10:47:33.159Z,82.04
2022-12-03T10:50:35.990Z,81.76
2022-12-03T10:53:40.542Z,82.36
2022-12-03T10:56:43.652Z,82.65
2022-12-03T10:59:46.640Z,81.54
2022-12-03T11:02:54.939Z,81.66
2022-12-03T11:06:00.921Z,81.23
2022-12-03T11:09:08.865Z,81.63
2022-12-03T11:12:23.533Z,81.56
2022-12-03T11:15:43.697Z,80.04
2022-12-03T11:18:59.142Z,79.24
2022-12-03T11:22:07.194Z,78.84
2022-12-03T11:25:24.554Z,78.87
2022-12-03T11:28:26.552Z,78.27
2022-12-03T11:31:36.046Z,78.56
2022-12-03T11:34:38.261Z,78.99
2022-12-03T11:37:40.920Z,78.64
2022-12-03T11:41:08.605Z,76.83
2022-12-03T11:44:30.027Z,76.87
2022-12-03T11:47:33.707Z,75.34
2022-12-03T11:50:53.336Z,75.55
2022-12-03T11:53:59.073Z,76.61
2022-12-03T11:57:02.541Z,76.16
2022-12-03T12:00:15.878Z,76.58
2022-12-03T12:03:34.893Z,76.64
2022-12-03T12:06:42.637Z,76.60
2022-12-03T12:09:53.687Z,75.95
2022-12-03T12:12:57.277Z,78.25
2022-12-03T12:16:01.754Z,77.23
2022-12-03T12:19:31.985Z,77.13
2022-12-03T12:22:34.530Z,77.10
2022-12-03T12:25:41.578Z,77.30
2022-12-03T12:28:44.017Z,77.75
2022-12-03T12:31:50.779Z,78.36
2022-12-03T12:35:16.224Z,78.12
2022-12-03T12:38:20.829Z,78.37
2022-12-03T12:41:24.138Z,78.06
2022-12-03T12:44:27.356Z,78.20
2022-12-03T12:47:30.139Z,78.51
2022-12-03T12:50:33.218Z,78.49
2022-12-03T12:53:38.814Z,78.55
2022-12-03T12:56:43.754Z,79.26
2022-12-03T12:59:46.104Z,80.06
2022-12-03T13:03:01.127Z,79.94
2022-12-03T13:06:04.043Z,79.97
2022-12-03T13:09:15.481Z,79.07
2022-12-03T13:12:21.873Z,79.17
2022-12-03T13:15:41.550Z,79.66
2022-12-03T13:18:47.386Z,79.62
2022-12-03T13:21:51.038Z,79.94
2022-12-03T13:24:56.133Z,80.69
2022-12-03T13:27:58.229Z,80.82
2022-12-03T13:31:22.349Z,80.93
2022-12-03T13:34:30.870Z,80.15
2022-12-03T13:37:33.753Z,79.70
2022-12-03T13:40:36.138Z,79.73
2022-12-03T13:43:44.385Z,79.93
2022-12-03T13:46:47.216Z,79.96
2022-12-03T13:49:54.039Z,80.63
2022-12-03T13:52:56.989Z,80.58
2022-12-03T13:56:38.158Z,81.17
2022-12-03T13:59:40.382Z,81.49
2022-12-03T14:02:42.955Z,80.15
2022-12-03T14:05:45.382Z,81.11
2022-12-03T14:08:47.481Z,81.41
2022-12-03T14:12:08.395Z,81.19
2022-12-03T14:15:11.358Z,81.68
2022-12-03T14:18:13.696Z,81.69
2022-12-03T14:21:16.002Z,81.56
2022-12-03T14:24:18.340Z,81.76
2022-12-03T14:27:21.397Z,81.88
2022-12-03T14:30:23.738Z,82.20
2022-12-03T14:33:25.797Z,83.05
2022-12-03T14:36:28.147Z,82.79
2022-12-03T14:39:30.253Z,82.29
2022-12-03T14:42:32.660Z,81.51
2022-12-03T14:45:34.857Z,82.45
2022-12-03T14:48:37.253Z,82.48
2022-12-03T14:51:39.350Z,83.15
2022-12-03T14:54:42.761Z,82.80
2022-12-03T14:57:45.093Z,83.66
2022-12-03T15:00:47.661Z,83.53
2022-12-03T15:03:49.884Z,83.64
2022-12-03T15:06:52.313Z,83.93
2022-12-03T15:09:54.720Z,84.45
2022-12-03T15:12:57.242Z,84.08
2022-12-03T15:15:59.520Z,84.23
2022-12-03T15:19:02.029Z,84.16
2022-12-03T15:22:04.297Z,84.84
2022-12-03T15:25:07.672Z,83.80
2022-12-03T15:28:10.158Z,84.53
2022-12-03T15:31:12.517Z,85.18
2022-12-03T15:34:20.346Z,85.24
2022-12-03T15:37:27.615Z,84.92
2022-12-03T15:40:29.787Z,84.68
2022-12-03T15:43:32.190Z,84.74
2022-12-03T15:46:34.393Z,84.59
2022-12-03T15:49:36.796Z,85.35
2022-12-03T15:52:38.955Z,85.36
2022-12-03T15:55:41.408Z,85.02
2022-12-03T15:58:43.930Z,85.49
2022-12-03T16:01:46.312Z,85.48
2022-12-03T16:04:48.870Z,85.15
2022-12-03T16:07:51.098Z,85.84
2022-12-03T16:10:53.871Z,86.08
2022-12-03T16:13:56.231Z,86.21
2022-12-03T16:17:02.155Z,86.04
2022-12-03T16:20:05.468Z,85.91
2022-12-03T16:23:08.189Z,85.91
2022-12-03T16:26:10.241Z,86.20
2022-12-03T16:29:12.627Z,86.98
2022-12-03T16:32:14.717Z,87.11
2022-12-03T16:35:17.230Z,87.32
2022-12-03T16:38:19.312Z,87.40
2022-12-03T16:41:22.621Z,87.37
2022-12-03T16:44:34.038Z,87.42
2022-12-03T16:47:36.601Z,87.70
2022-12-03T16:50:38.718Z,88.24
2022-12-03T16:53:41.218Z,88.76
2022-12-03T16:56:43.347Z,88.94
2022-12-03T16:59:45.900Z,88.52
2022-12-03T17:02:48.681Z,88.57
2022-12-03T17:05:51.098Z,88.59
2022-12-03T17:08:53.211Z,88.48
2022-12-03T17:11:55.598Z,88.01
2022-12-03T17:14:57.679Z,88.15
2022-12-03T17:18:00.514Z,87.86
2022-12-03T17:21:02.654Z,88.31
2022-12-03T17:24:05.174Z,88.15
2022-12-03T17:27:08.036Z,88.53
2022-12-03T17:30:11.050Z,89.23
2022-12-03T17:33:13.181Z,89.17
2022-12-03T17:36:15.526Z,89.07
2022-12-03T17:39:17.697Z,89.22
2022-12-03T17:42:20.041Z,90.12
2022-12-03T17:45:22.108Z,89.46
2022-12-03T17:48:24.513Z,89.76
2022-12-03T17:51:26.598Z,89.38
2022-12-03T17:54:43.477Z,89.72
2022-12-03T17:57:51.180Z,89.68
2022-12-03T18:00:58.595Z,89.45
2022-12-03T18:04:04.718Z,89.59
2022-12-03T18:07:06.910Z,90.07
2022-12-03T18:10:09.547Z,90.46
2022-12-03T18:13:11.686Z,90.45
2022-12-03T18:16:15.513Z,89.98
2022-12-03T18:19:17.710Z,90.80
2022-12-03T18:22:20.509Z,91.55
2022-12-03T18:25:22.602Z,91.34
2022-12-03T18:28:24.985Z,91.50
2022-12-03T18:31:27.130Z,91.61
2022-12-03T18:34:29.509Z,92.12
2022-12-03T18:37:32.168Z,91.78
2022-12-03T18:40:34.621Z,92.56
2022-12-03T18:43:36.698Z,92.89
2022-12-03T18:46:53.492Z,93.49
2022-12-03T18:49:57.805Z,92.44
2022-12-03T18:53:00.399Z,93.04
2022-12-03T18:56:02.936Z,93.06
2022-12-03T18:59:07.402Z,93.77
2022-12-03T19:02:53.844Z,93.39
2022-12-03T19:05:40.108Z,92.37
2022-12-03T19:08:42.971Z,91.29
2022-12-03T19:11:45.366Z,91.33
2022-12-03T19:14:47.482Z,91.19
2022-12-03T19:17:50.317Z,90.62
2022-12-03T19:20:52.474Z,91.07
2022-12-03T19:24:22.632Z,91.07
2022-12-03T19:27:17.362Z,91.62
2022-12-03T19:30:21.988Z,91.40
2022-12-03T19:33:28.423Z,91.91
2022-12-03T19:36:32.248Z,92.70
2022-12-03T19:39:34.696Z,92.74
2022-12-03T19:42:37.103Z,93.11
2022-12-03T19:45:39.245Z,92.26
2022-12-03T19:48:42.217Z,91.97
2022-12-03T19:51:44.388Z,92.11
2022-12-03T19:54:46.748Z,91.75
2022-12-03T19:57:48.864Z,91.41
2022-12-03T20:00:51.259Z,91.29
2022-12-03T20:03:56.192Z,91.13
2022-12-03T20:06:58.322Z,92.15
2022-12-03T20:10:00.688Z,92.00
2022-12-03T20:13:03.257Z,92.77
2022-12-03T20:16:08.638Z,93.63
2022-12-03T20:19:12.841Z,92.93
2022-12-03T20:22:15.225Z,92.90
2022-12-03T20:25:17.380Z,93.21
2022-12-03T20:28:20.095Z,93.03
2022-12-03T20:31:24.491Z,92.57
2022-12-03T20:34:26.932Z,91.60
2022-12-03T20:37:29.222Z,91.71
2022-12-03T20:40:36.420Z,91.55
2022-12-03T20:43:39.139Z,91.23
2022-12-03T20:46:41.612Z,91.80
2022-12-03T20:49:43.825Z,91.74
2022-12-03T20:53:03.581Z,91.81
2022-12-03T20:56:08.624Z,91.70
2022-12-03T20:59:14.447Z,91.56
2022-12-03T21:02:16.738Z,91.21
2022-12-03T21:05:19.291Z,90.71
2022-12-03T21:08:39.877Z,90.57
2022-12-03T21:11:43.146Z,91.17
2022-12-03T21:14:45.341Z,90.67
2022-12-03T21:17:47.785Z,90.62
2022-12-03T21:20:49.960Z,90.14
2022-12-03T21:23:52.802Z,90.56
2022-12-03T21:26:54.893Z,90.60
2022-12-03T21:29:57.538Z,90.62
2022-12-03T21:32:59.895Z,91.02
2022-12-03T21:36:02.755Z,91.54
2022-12-03T21:39:06.057Z,91.46
2022-12-03T21:42:22.328Z,91.43
2022-12-03T21:45:30.819Z,90.80
2022-12-03T21:48:33.723Z,90.52
2022-12-03T21:51:35.797Z,90.77
2022-12-03T21:54:38.264Z,91.00
2022-12-03T21:57:40.403Z,91.97
2022-12-03T22:00:42.791Z,92.20
2022-12-03T22:03:45.649Z,92.66
2022-12-03T22:06:47.764Z,91.78
2022-12-03T22:09:50.115Z,92.46
2022-12-03T22:12:52.209Z,92.44
2022-12-03T22:15:54.636Z,92.59
2022-12-03T22:18:56.751Z,92.56
2022-12-03T22:21:59.164Z,92.81
2022-12-03T22:25:01.272Z,93.49
2022-12-03T22:28:03.801Z,92.95
2022-12-03T22:31:09.985Z,92.26
2022-12-03T22:34:12.726Z,92.23
2022-12-03T22:37:15.037Z,92.48
2022-12-03T22:40:20.648Z,92.25
2022-12-03T22:43:23.365Z,92.43
2022-12-03T22:46:25.817Z,92.42
2022-12-03T22:49:28.097Z,92.57
2022-12-03T22:52:30.518Z,93.14
2022-12-03T22:55:32.849Z,93.43
2022-12-03T22:58:37.869Z,93.21
2022-12-03T23:01:41.177Z,92.66
2022-12-03T23:04:43.872Z,92.59
2022-12-03T23:07:46.015Z,93.10
2022-12-03T23:10:51.259Z,93.25
2022-12-03T23:13:55.269Z,93.41
2022-12-03T23:16:57.798Z,93.32
2022-12-03T23:20:00.151Z,93.18
2022-12-03T23:23:02.538Z,93.39
2022-12-03T23:26:07.524Z,93.70
2022-12-03T23:29:09.949Z,94.06
2022-12-03T23:32:12.154Z,93.87
2022-12-03T23:35:14.647Z,94.13
2022-12-03T23:38:19.726Z,94.01
2022-12-03T23:41:23.484Z,94.03
2022-12-03T23:44:27.487Z,94.14
2022-12-03T23:47:30.041Z,94.98
2022-12-03T23:50:32.099Z,94.99
2022-12-03T23:53:35.485Z,95.29
2022-12-03T23:56:38.129Z,95.67
2022-12-03T23:59:42.025Z,94.94
